createdAt,value
2018-08-10T00:00:45.372Z,15.61
2018-08-10T00:01:45.346Z,15.58
2018-08-10T00:02:45.325Z,15.62
2018-08-10T00:03:45.291Z,15.59
2018-08-10T00:04:45.273Z,15.64
2018-08-10T00:05:45.245Z,15.65
2018-08-10T00:06:45.221Z,15.64
2018-08-10T00:07:45.197Z,15.72
2018-08-10T00:08:45.189Z,15.64
2018-08-10T00:09:45.138Z,15.80
2018-08-10T00:10:45.117Z,15.70
2018-08-10T00:11:45.094Z,15.77
2018-08-10T00:12:45.065Z,15.83
2018-08-10T00:13:45.031Z,15.79
2018-08-10T00:14:45.013Z,15.95
2018-08-10T00:15:44.981Z,15.84
2018-08-10T00:16:44.959Z,15.86
2018-08-10T00:17:44.937Z,15.92
2018-08-10T00:18:44.900Z,16.02
2018-08-10T00:19:44.883Z,15.92
2018-08-10T00:20:44.854Z,15.98
2018-08-10T00:21:44.831Z,16.05
2018-08-10T00:22:44.803Z,16.09
2018-08-10T00:23:44.778Z,16.04
2018-08-10T00:24:44.754Z,16.02
2018-08-10T00:25:44.725Z,15.98
2018-08-10T00:26:44.695Z,16.02
2018-08-10T00:27:44.671Z,16.09
2018-08-10T00:28:44.647Z,16.10
2018-08-10T00:29:44.617Z,16.12
2018-08-10T00:30:44.594Z,16.15
2018-08-10T00:31:44.570Z,16.12
2018-08-10T00:32:44.540Z,16.10
2018-08-10T00:33:44.516Z,16.12
2018-08-10T00:34:44.488Z,16.16
2018-08-10T00:35:44.459Z,16.09
2018-08-10T00:36:44.441Z,16.09
2018-08-10T00:37:44.413Z,16.16
2018-08-10T00:38:44.388Z,16.16
2018-08-10T00:39:44.357Z,16.15
2018-08-10T00:40:44.329Z,16.21
2018-08-10T00:41:44.309Z,16.21
2018-08-10T00:42:44.275Z,16.23
2018-08-10T00:43:44.260Z,16.20
2018-08-10T00:44:44.224Z,16.31
2018-08-10T00:45:44.205Z,16.24
2018-08-10T00:46:44.173Z,16.26
2018-08-10T00:47:44.146Z,16.28
2018-08-10T00:48:44.131Z,16.31
2018-08-10T00:49:44.095Z,16.29
2018-08-10T00:50:44.076Z,16.29
2018-08-10T00:51:44.048Z,16.31
2018-08-10T00:52:44.019Z,16.35
2018-08-10T00:53:43.991Z,16.33
2018-08-10T00:54:43.969Z,16.28
2018-08-10T00:55:43.949Z,16.36
2018-08-10T00:56:43.917Z,16.36
2018-08-10T00:57:43.888Z,16.35
2018-08-10T00:58:43.865Z,16.36
2018-08-10T00:59:43.833Z,16.42
2018-08-10T01:00:43.818Z,16.46
2018-08-10T01:01:43.783Z,16.47
2018-08-10T01:02:43.765Z,16.36
2018-08-10T01:03:43.740Z,16.50
2018-08-10T01:04:43.709Z,16.36
2018-08-10T01:05:43.686Z,16.41
2018-08-10T01:06:43.655Z,16.38
2018-08-10T01:07:43.630Z,16.43
2018-08-10T01:08:43.606Z,16.41
2018-08-10T01:09:43.585Z,16.41
2018-08-10T01:10:43.548Z,16.35
2018-08-10T01:11:43.524Z,16.39
2018-08-10T01:12:43.501Z,16.39
2018-08-10T01:13:43.470Z,16.36
2018-08-10T01:14:43.446Z,16.42
2018-08-10T01:15:43.423Z,16.38
2018-08-10T01:16:43.399Z,16.33
2018-08-10T01:17:43.375Z,16.38
2018-08-10T01:18:43.344Z,16.36
2018-08-10T01:19:43.324Z,16.46
2018-08-10T01:20:43.290Z,16.41
2018-08-10T01:21:43.273Z,16.46
2018-08-10T01:22:43.239Z,16.42
2018-08-10T01:23:43.222Z,16.43
2018-08-10T01:24:43.186Z,16.50
2018-08-10T01:25:43.167Z,16.47
2018-08-10T01:26:43.134Z,16.43
2018-08-10T01:27:43.108Z,16.43
2018-08-10T01:28:43.191Z,16.41
2018-08-10T01:29:43.055Z,16.42
2018-08-10T01:30:43.037Z,16.38
2018-08-10T01:31:43.012Z,16.39
2018-08-10T01:32:42.977Z,16.36
2018-08-10T01:33:42.955Z,16.36
2018-08-10T01:34:42.927Z,16.32
2018-08-10T01:35:42.904Z,16.35
2018-08-10T01:36:42.882Z,16.43
2018-08-10T01:37:42.848Z,16.42
2018-08-10T01:38:42.830Z,16.38
2018-08-10T01:39:42.797Z,16.39
2018-08-10T01:40:42.781Z,16.39
2018-08-10T01:41:42.746Z,16.39
2018-08-10T01:42:42.727Z,16.36
2018-08-10T01:43:42.699Z,16.39
2018-08-10T01:44:42.668Z,16.38
2018-08-10T01:45:42.646Z,16.50
2018-08-10T01:46:42.613Z,16.46
2018-08-10T01:47:42.589Z,16.46
2018-08-10T01:48:42.571Z,16.42
2018-08-10T01:49:42.564Z,16.50
2018-08-10T01:50:42.515Z,16.50
2018-08-10T01:51:42.487Z,16.50
2018-08-10T01:52:42.459Z,16.43
2018-08-10T01:53:42.436Z,16.47
2018-08-10T01:54:42.407Z,16.42
2018-08-10T01:55:42.400Z,16.41
2018-08-10T01:56:42.358Z,16.50
2018-08-10T01:57:42.340Z,16.36
2018-08-10T01:58:42.304Z,16.36
2018-08-10T01:59:42.281Z,16.43
2018-08-10T02:00:42.254Z,16.33
2018-08-10T02:01:42.225Z,16.36
2018-08-10T02:02:42.208Z,16.35
2018-08-10T02:03:42.182Z,16.33
2018-08-10T02:04:42.148Z,16.29
2018-08-10T02:05:42.131Z,16.29
2018-08-10T02:06:42.101Z,16.31
2018-08-10T02:07:42.075Z,16.28
2018-08-10T02:08:42.103Z,16.33
2018-08-10T02:09:42.022Z,16.28
2018-08-10T02:10:41.998Z,16.21
2018-08-10T02:11:41.972Z,16.26
2018-08-10T02:12:41.944Z,16.16
2018-08-10T02:13:41.912Z,16.21
2018-08-10T02:14:41.896Z,16.16
2018-08-10T02:15:41.864Z,16.16
2018-08-10T02:16:41.847Z,16.23
2018-08-10T02:17:41.820Z,16.20
2018-08-10T02:18:41.786Z,16.15
2018-08-10T02:19:41.760Z,16.16
2018-08-10T02:20:41.740Z,16.04
2018-08-10T02:21:41.715Z,16.04
2018-08-10T02:22:41.689Z,16.00
2018-08-10T02:23:41.663Z,15.95
2018-08-10T02:24:41.639Z,15.95
2018-08-10T02:25:41.610Z,15.97
2018-08-10T02:26:41.576Z,15.94
2018-08-10T02:27:41.560Z,16.00
2018-08-10T02:28:41.524Z,15.84
2018-08-10T02:29:41.506Z,15.90
2018-08-10T02:30:41.472Z,15.80
2018-08-10T02:31:41.448Z,15.72
2018-08-10T02:32:41.429Z,15.77
2018-08-10T02:33:41.393Z,15.75
2018-08-10T02:34:41.378Z,15.79
2018-08-10T02:35:41.346Z,15.77
2018-08-10T02:36:41.324Z,15.68
2018-08-10T02:37:41.299Z,15.77
2018-08-10T02:38:41.269Z,15.68
2018-08-10T02:39:41.238Z,15.64
2018-08-10T02:40:41.215Z,15.67
2018-08-10T02:41:41.191Z,15.73
2018-08-10T02:42:41.164Z,15.76
2018-08-10T02:43:41.136Z,15.73
2018-08-10T02:44:41.117Z,15.68
2018-08-10T02:45:41.085Z,15.65
2018-08-10T02:46:41.067Z,15.68
2018-08-10T02:47:41.040Z,15.68
2018-08-10T02:48:41.006Z,15.70
2018-08-10T02:49:40.989Z,15.68
2018-08-10T02:50:40.954Z,15.72
2018-08-10T02:51:40.935Z,15.75
2018-08-10T02:52:40.905Z,15.80
2018-08-10T02:53:40.874Z,15.80
2018-08-10T02:54:40.859Z,15.80
2018-08-10T02:55:40.828Z,15.77
2018-08-10T02:56:40.805Z,15.80
2018-08-10T02:57:40.777Z,15.70
2018-08-10T02:58:40.748Z,15.75
2018-08-10T02:59:40.747Z,15.73
2018-08-10T03:00:40.695Z,15.79
2018-08-10T03:01:40.669Z,15.83
2018-08-10T03:02:40.645Z,15.79
2018-08-10T03:03:40.615Z,15.88
2018-08-10T03:04:40.599Z,15.90
2018-08-10T03:05:40.571Z,15.90
2018-08-10T03:06:40.542Z,15.86
2018-08-10T03:07:40.513Z,15.94
2018-08-10T03:08:40.492Z,15.90
2018-08-10T03:09:40.466Z,15.94
2018-08-10T03:10:40.433Z,15.95
2018-08-10T03:11:40.433Z,15.94
2018-08-10T03:12:40.387Z,15.92
2018-08-10T03:13:40.368Z,15.98
2018-08-10T03:14:40.336Z,15.95
2018-08-10T03:15:40.310Z,15.94
2018-08-10T03:16:40.287Z,15.97
2018-08-10T03:17:40.256Z,16.02
2018-08-10T03:18:40.230Z,15.94
2018-08-10T03:19:40.211Z,15.92
2018-08-10T03:20:40.176Z,15.92
2018-08-10T03:21:40.152Z,16.00
2018-08-10T03:22:40.133Z,15.94
2018-08-10T03:23:40.096Z,15.94
2018-08-10T03:24:40.084Z,15.97
2018-08-10T03:25:40.047Z,15.91
2018-08-10T03:26:40.029Z,15.98
2018-08-10T03:27:39.995Z,15.88
2018-08-10T03:28:39.972Z,15.94
2018-08-10T03:29:39.944Z,15.77
2018-08-10T03:30:39.920Z,15.88
2018-08-10T03:31:39.901Z,15.84
2018-08-10T03:32:39.862Z,15.73
2018-08-10T03:33:39.841Z,15.73
2018-08-10T03:34:39.817Z,15.77
2018-08-10T03:35:39.786Z,15.70
2018-08-10T03:36:39.771Z,15.61
2018-08-10T03:37:39.739Z,15.62
2018-08-10T03:38:39.807Z,15.65
2018-08-10T03:39:39.690Z,15.58
2018-08-10T03:40:39.654Z,15.67
2018-08-10T03:41:39.638Z,15.65
2018-08-10T03:42:39.608Z,15.62
2018-08-10T03:43:39.584Z,15.68
2018-08-10T03:44:39.559Z,15.65
2018-08-10T03:45:39.524Z,15.59
2018-08-10T03:46:39.507Z,15.68
2018-08-10T03:47:39.474Z,15.65
2018-08-10T03:48:39.466Z,15.72
2018-08-10T03:49:39.468Z,15.70
2018-08-10T03:50:39.403Z,15.67
2018-08-10T03:51:39.379Z,15.67
2018-08-10T03:52:39.346Z,15.62
2018-08-10T03:53:39.325Z,15.65
2018-08-10T03:54:39.292Z,15.59
2018-08-10T03:55:39.270Z,15.57
2018-08-10T03:56:39.244Z,15.59
2018-08-10T03:57:39.213Z,15.61
2018-08-10T03:58:39.206Z,15.58
2018-08-10T03:59:39.163Z,15.62
2018-08-10T04:00:39.148Z,15.57
2018-08-10T04:01:39.118Z,15.59
2018-08-10T04:02:39.083Z,15.62
2018-08-10T04:03:39.065Z,15.65
2018-08-10T04:04:39.033Z,15.65
2018-08-10T04:05:39.006Z,15.54
2018-08-10T04:06:38.985Z,15.61
2018-08-10T04:07:38.953Z,15.57
2018-08-10T04:08:38.934Z,15.67
2018-08-10T04:09:38.981Z,15.55
2018-08-10T04:10:38.972Z,15.59
2018-08-10T04:11:38.884Z,15.64
2018-08-10T04:12:38.865Z,15.58
2018-08-10T04:13:38.800Z,15.58
2018-08-10T04:14:38.777Z,15.64
2018-08-10T04:15:38.746Z,15.64
2018-08-10T04:16:38.726Z,15.64
2018-08-10T04:17:38.696Z,15.67
2018-08-10T04:18:38.669Z,15.61
2018-08-10T04:19:38.642Z,15.62
2018-08-10T04:20:38.625Z,15.65
2018-08-10T04:21:38.629Z,15.55
2018-08-10T04:22:38.565Z,15.52
2018-08-10T04:23:38.545Z,15.51
2018-08-10T04:24:38.517Z,15.54
2018-08-10T04:25:38.510Z,15.55
2018-08-10T04:26:38.496Z,15.49
2018-08-10T04:27:38.474Z,15.51
2018-08-10T04:28:38.415Z,15.42
2018-08-10T04:29:38.468Z,15.37
2018-08-10T04:30:38.358Z,15.43
2018-08-10T04:31:38.337Z,15.47
2018-08-10T04:32:38.309Z,15.31
2018-08-10T04:33:38.280Z,15.37
2018-08-10T04:34:38.257Z,15.33
2018-08-10T04:35:38.233Z,15.35
2018-08-10T04:36:38.198Z,15.35
2018-08-10T04:37:38.177Z,15.29
2018-08-10T04:38:38.228Z,15.29
2018-08-10T04:39:38.126Z,15.37
2018-08-10T04:40:38.106Z,15.39
2018-08-10T04:41:38.078Z,15.35
2018-08-10T04:42:38.045Z,15.27
2018-08-10T04:43:38.026Z,15.31
2018-08-10T04:44:37.997Z,15.31
2018-08-10T04:45:37.978Z,15.33
2018-08-10T04:46:37.945Z,15.22
2018-08-10T04:47:37.916Z,15.35
2018-08-10T04:48:37.890Z,15.27
2018-08-10T04:49:37.867Z,15.39
2018-08-10T04:50:37.840Z,15.36
2018-08-10T04:51:37.809Z,15.39
2018-08-10T04:52:37.791Z,15.40
2018-08-10T04:53:37.763Z,15.35
2018-08-10T04:54:37.739Z,15.25
2018-08-10T04:55:37.714Z,15.22
2018-08-10T04:56:37.682Z,15.22
2018-08-10T04:57:37.661Z,15.29
2018-08-10T04:58:37.628Z,15.28
2018-08-10T04:59:37.609Z,15.24
2018-08-10T05:00:37.576Z,15.31
2018-08-10T05:01:37.558Z,15.24
2018-08-10T05:02:37.524Z,15.25
2018-08-10T05:03:37.509Z,15.33
2018-08-10T05:04:37.481Z,15.29
2018-08-10T05:05:37.445Z,15.25
2018-08-10T05:06:37.424Z,15.35
2018-08-10T05:07:37.393Z,15.35
2018-08-10T05:08:37.377Z,15.39
2018-08-10T05:09:37.392Z,15.42
2018-08-10T05:10:37.320Z,15.25
2018-08-10T05:11:37.297Z,15.31
2018-08-10T05:12:37.264Z,15.25
2018-08-10T05:13:37.239Z,15.37
2018-08-10T05:14:37.217Z,15.33
2018-08-10T05:15:37.222Z,15.42
2018-08-10T05:16:37.162Z,15.46
2018-08-10T05:17:37.147Z,15.42
2018-08-10T05:18:37.111Z,15.43
2018-08-10T05:19:37.092Z,15.47
2018-08-10T05:20:37.061Z,15.51
2018-08-10T05:21:37.032Z,15.39
2018-08-10T05:22:37.010Z,15.51
2018-08-10T05:23:36.984Z,15.52
2018-08-10T05:24:36.956Z,15.51
2018-08-10T05:25:36.966Z,15.51
2018-08-10T05:26:36.904Z,15.54
2018-08-10T05:27:36.876Z,15.54
2018-08-10T05:28:36.910Z,15.51
2018-08-10T05:29:36.827Z,15.52
2018-08-10T05:30:36.796Z,15.57
2018-08-10T05:31:36.779Z,15.55
2018-08-10T05:32:36.743Z,15.58
2018-08-10T05:33:36.723Z,15.55
2018-08-10T05:34:36.696Z,15.61
2018-08-10T05:35:36.673Z,15.62
2018-08-10T05:36:36.655Z,15.65
2018-08-10T05:37:36.624Z,15.73
2018-08-10T05:38:36.595Z,15.72
2018-08-10T05:39:36.561Z,15.72
2018-08-10T05:40:36.545Z,15.77
2018-08-10T05:41:36.513Z,15.80
2018-08-10T05:42:36.483Z,15.73
2018-08-10T05:43:36.473Z,15.73
2018-08-10T05:44:36.430Z,15.84
2018-08-10T05:45:36.406Z,15.88
2018-08-10T05:46:36.384Z,15.84
2018-08-10T05:47:36.361Z,15.75
2018-08-10T05:48:36.337Z,15.84
2018-08-10T05:49:36.300Z,15.82
2018-08-10T05:50:36.276Z,15.77
2018-08-10T05:51:36.250Z,15.80
2018-08-10T05:52:36.288Z,15.92
2018-08-10T05:53:36.201Z,15.88
2018-08-10T05:54:36.176Z,15.90
2018-08-10T05:55:36.174Z,15.94
2018-08-10T05:56:36.120Z,15.94
2018-08-10T05:57:36.118Z,15.94
2018-08-10T05:58:36.068Z,15.94
2018-08-10T05:59:36.041Z,15.94
2018-08-10T06:00:36.036Z,15.95
2018-08-10T06:01:35.988Z,16.08
2018-08-10T06:02:35.986Z,16.02
2018-08-10T06:03:35.968Z,16.04
2018-08-10T06:04:35.911Z,16.05
2018-08-10T06:05:35.894Z,16.09
2018-08-10T06:06:35.856Z,16.10
2018-08-10T06:07:35.841Z,16.09
2018-08-10T06:08:35.827Z,16.08
2018-08-10T06:09:35.780Z,16.10
2018-08-10T06:10:35.756Z,16.20
2018-08-10T06:11:35.794Z,16.16
2018-08-10T06:12:35.705Z,16.12
2018-08-10T06:13:35.675Z,16.17
2018-08-10T06:14:35.659Z,16.20
2018-08-10T06:15:35.677Z,16.21
2018-08-10T06:16:35.605Z,16.20
2018-08-10T06:17:35.583Z,16.21
2018-08-10T06:18:35.545Z,16.24
2018-08-10T06:19:35.570Z,16.28
2018-08-10T06:20:35.498Z,16.28
2018-08-10T06:21:35.492Z,16.36
2018-08-10T06:22:35.452Z,16.36
2018-08-10T06:23:35.424Z,16.39
2018-08-10T06:24:35.396Z,16.47
2018-08-10T06:25:35.377Z,16.42
2018-08-10T06:26:35.345Z,16.38
2018-08-10T06:27:35.350Z,16.38
2018-08-10T06:28:35.287Z,16.53
2018-08-10T06:29:35.268Z,16.42
2018-08-10T06:30:35.244Z,16.47
2018-08-10T06:31:35.211Z,16.43
2018-08-10T06:32:35.194Z,16.51
2018-08-10T06:33:35.157Z,16.41
2018-08-10T06:34:35.141Z,16.47
2018-08-10T06:35:35.116Z,16.53
2018-08-10T06:36:35.084Z,16.53
2018-08-10T06:37:35.060Z,16.51
2018-08-10T06:38:35.033Z,16.58
2018-08-10T06:39:35.006Z,16.54
2018-08-10T06:40:34.983Z,16.54
2018-08-10T06:41:34.961Z,16.57
2018-08-10T06:42:34.926Z,16.68
2018-08-10T06:43:34.902Z,16.69
2018-08-10T06:44:34.872Z,16.74
2018-08-10T06:45:34.844Z,16.81
2018-08-10T06:46:34.836Z,16.76
2018-08-10T06:47:34.795Z,16.84
2018-08-10T06:48:34.775Z,16.83
2018-08-10T06:49:34.751Z,16.86
2018-08-10T06:50:34.714Z,16.89
2018-08-10T06:51:34.692Z,16.94
2018-08-10T06:52:34.673Z,16.89
2018-08-10T06:53:34.637Z,16.97
2018-08-10T06:54:34.612Z,16.99
2018-08-10T06:55:34.592Z,17.02
2018-08-10T06:56:34.561Z,17.11
2018-08-10T06:57:34.539Z,17.14
2018-08-10T06:58:34.520Z,17.11
2018-08-10T06:59:34.486Z,17.14
2018-08-10T07:00:34.492Z,17.14
2018-08-10T07:01:34.447Z,17.11
2018-08-10T07:02:34.405Z,17.12
2018-08-10T07:03:34.389Z,17.06
2018-08-10T07:04:34.360Z,17.08
2018-08-10T07:05:34.328Z,17.09
2018-08-10T07:06:34.317Z,17.19
2018-08-10T07:07:34.367Z,17.24
2018-08-10T07:08:34.250Z,17.31
2018-08-10T07:09:34.235Z,17.27
2018-08-10T07:10:34.198Z,17.38
2018-08-10T07:11:34.172Z,17.29
2018-08-10T07:12:34.150Z,17.29
2018-08-10T07:13:34.164Z,17.30
2018-08-10T07:14:34.098Z,17.33
2018-08-10T07:15:34.079Z,17.41
2018-08-10T07:16:34.043Z,17.44
2018-08-10T07:17:34.021Z,17.45
2018-08-10T07:18:33.993Z,17.42
2018-08-10T07:19:33.970Z,17.44
2018-08-10T07:20:33.946Z,17.39
2018-08-10T07:21:33.914Z,17.44
2018-08-10T07:22:33.896Z,17.41
2018-08-10T07:23:33.861Z,17.59
2018-08-10T07:24:33.851Z,17.60
2018-08-10T07:25:33.808Z,17.68
2018-08-10T07:26:33.788Z,17.67
2018-08-10T07:27:33.767Z,17.67
2018-08-10T07:28:33.742Z,17.67
2018-08-10T07:29:33.712Z,17.79
2018-08-10T07:30:33.686Z,17.79
2018-08-10T07:31:33.661Z,17.72
2018-08-10T07:32:33.633Z,17.71
2018-08-10T07:33:33.612Z,17.82
2018-08-10T07:34:33.577Z,17.85
2018-08-10T07:35:33.557Z,17.86
2018-08-10T07:36:33.528Z,17.86
2018-08-10T07:37:33.500Z,17.94
2018-08-10T07:38:33.503Z,17.94
2018-08-10T07:39:33.468Z,17.94
2018-08-10T07:40:33.422Z,17.92
2018-08-10T07:41:33.400Z,17.92
2018-08-10T07:42:33.378Z,17.94
2018-08-10T07:43:33.345Z,18.04
2018-08-10T07:44:33.330Z,18.07
2018-08-10T07:45:33.299Z,18.05
2018-08-10T07:46:33.327Z,18.04
2018-08-10T07:47:33.242Z,18.11
2018-08-10T07:48:33.230Z,18.08
2018-08-10T07:49:33.194Z,18.11
2018-08-10T07:50:33.176Z,18.18
2018-08-10T07:51:33.148Z,18.13
2018-08-10T07:52:33.112Z,18.18
2018-08-10T07:53:33.090Z,18.16
2018-08-10T07:54:33.067Z,18.23
2018-08-10T07:55:33.034Z,18.31
2018-08-10T07:56:33.019Z,18.34
2018-08-10T07:57:32.988Z,18.41
2018-08-10T07:58:32.959Z,18.52
2018-08-10T07:59:32.948Z,18.47
2018-08-10T08:00:32.908Z,18.43
2018-08-10T08:01:32.885Z,18.47
2018-08-10T08:02:32.861Z,18.49
2018-08-10T08:03:32.869Z,18.55
2018-08-10T08:04:32.810Z,18.49
2018-08-10T08:05:32.786Z,18.53
2018-08-10T08:06:32.759Z,18.60
2018-08-10T08:07:32.734Z,18.62
2018-08-10T08:08:32.706Z,18.58
2018-08-10T08:09:32.682Z,18.63
2018-08-10T08:10:32.700Z,18.62
2018-08-10T08:11:32.631Z,18.65
2018-08-10T08:12:32.604Z,18.68
2018-08-10T08:13:32.582Z,18.77
2018-08-10T08:14:32.546Z,18.80
2018-08-10T08:15:32.526Z,18.78
2018-08-10T08:16:32.509Z,18.78
2018-08-10T08:17:32.470Z,18.74
2018-08-10T08:18:32.452Z,18.80
2018-08-10T08:19:32.480Z,18.74
2018-08-10T08:20:32.407Z,18.78
2018-08-10T08:21:32.373Z,18.73
2018-08-10T08:22:32.352Z,18.81
2018-08-10T08:23:32.324Z,18.77
2018-08-10T08:24:32.289Z,18.78
2018-08-10T08:25:32.273Z,18.81
2018-08-10T08:26:32.241Z,18.73
2018-08-10T08:27:32.219Z,18.75
2018-08-10T08:28:32.194Z,18.60
2018-08-10T08:29:32.163Z,18.66
2018-08-10T08:30:32.151Z,18.66
2018-08-10T08:31:32.121Z,18.63
2018-08-10T08:32:32.094Z,18.52
2018-08-10T08:33:32.069Z,18.53
2018-08-10T08:34:32.093Z,18.52
2018-08-10T08:35:32.021Z,18.59
2018-08-10T08:36:31.988Z,18.58
2018-08-10T08:37:31.970Z,18.62
2018-08-10T08:38:31.934Z,18.80
2018-08-10T08:39:31.909Z,18.81
2018-08-10T08:40:31.896Z,18.78
2018-08-10T08:41:31.858Z,18.92
2018-08-10T08:42:31.892Z,18.92
2018-08-10T08:43:31.818Z,19.02
2018-08-10T08:44:31.786Z,19.08
2018-08-10T08:45:31.862Z,19.11
2018-08-10T08:46:32.045Z,19.11
2018-08-10T08:47:31.705Z,19.18
2018-08-10T08:48:31.686Z,19.29
2018-08-10T08:49:31.699Z,19.37
2018-08-10T08:50:31.630Z,19.36
2018-08-10T08:51:31.607Z,19.58
2018-08-10T08:52:31.580Z,19.62
2018-08-10T08:53:31.552Z,19.74
2018-08-10T08:54:31.535Z,19.96
2018-08-10T08:55:31.502Z,20.11
2018-08-10T08:56:31.480Z,20.24
2018-08-10T08:57:31.488Z,20.25
2018-08-10T08:58:31.427Z,20.19
2018-08-10T08:59:31.423Z,20.25
2018-08-10T09:00:31.381Z,20.40
2018-08-10T09:01:31.355Z,20.36
2018-08-10T09:02:31.326Z,20.44
2018-08-10T09:03:31.307Z,20.56
2018-08-10T09:04:31.273Z,20.67
2018-08-10T09:05:31.264Z,20.63
2018-08-10T09:06:31.229Z,20.78
2018-08-10T09:07:31.213Z,20.82
2018-08-10T09:08:31.178Z,20.75
2018-08-10T09:09:31.155Z,20.75
2018-08-10T09:10:31.119Z,20.72
2018-08-10T09:11:31.103Z,20.60
2018-08-10T09:12:31.075Z,20.58
2018-08-10T09:13:31.046Z,20.65
2018-08-10T09:14:31.151Z,20.77
2018-08-10T09:15:30.996Z,20.82
2018-08-10T09:16:30.977Z,20.92
2018-08-10T09:17:31.044Z,21.05
2018-08-10T09:18:30.924Z,21.06
2018-08-10T09:19:30.905Z,20.92
2018-08-10T09:20:30.870Z,21.05
2018-08-10T09:21:30.848Z,21.02
2018-08-10T09:22:30.897Z,21.09
2018-08-10T09:23:30.803Z,21.09
2018-08-10T09:24:30.777Z,21.07
2018-08-10T09:25:30.747Z,21.05
2018-08-10T09:26:30.734Z,21.02
2018-08-10T09:27:30.697Z,21.00
2018-08-10T09:28:30.684Z,21.07
2018-08-10T09:29:30.650Z,20.92
2018-08-10T09:30:30.621Z,20.82
2018-08-10T09:31:30.644Z,20.75
2018-08-10T09:32:30.601Z,20.65
2018-08-10T09:33:30.546Z,20.58
2018-08-10T09:34:30.610Z,20.58
2018-08-10T09:35:30.497Z,20.58
2018-08-10T09:36:30.506Z,20.65
2018-08-10T09:37:30.454Z,20.67
2018-08-10T09:38:30.469Z,20.72
2018-08-10T09:39:30.397Z,20.77
2018-08-10T09:40:30.379Z,20.82
2018-08-10T09:41:30.350Z,21.03
2018-08-10T09:42:30.326Z,21.07
2018-08-10T09:43:30.303Z,21.09
2018-08-10T09:44:30.274Z,21.07
2018-08-10T09:45:30.283Z,20.90
2018-08-10T09:46:30.226Z,20.92
2018-08-10T09:47:30.201Z,21.05
2018-08-10T09:48:30.172Z,21.00
2018-08-10T09:49:30.154Z,21.21
2018-08-10T09:50:30.132Z,21.30
2018-08-10T09:51:30.105Z,21.37
2018-08-10T09:52:30.080Z,21.50
2018-08-10T09:53:30.056Z,21.40
2018-08-10T09:54:30.035Z,21.45
2018-08-10T09:55:30.012Z,21.40
2018-08-10T09:56:29.974Z,21.39
2018-08-10T09:57:29.949Z,21.50
2018-08-10T09:58:29.925Z,21.55
2018-08-10T09:59:29.897Z,21.61
2018-08-10T10:00:29.880Z,21.69
2018-08-10T10:01:29.851Z,21.64
2018-08-10T10:02:29.825Z,21.54
2018-08-10T10:03:29.854Z,21.50
2018-08-10T10:04:29.773Z,21.43
2018-08-10T10:05:29.750Z,21.39
2018-08-10T10:06:29.725Z,21.35
2018-08-10T10:07:29.708Z,21.36
2018-08-10T10:08:29.683Z,21.42
2018-08-10T10:09:29.652Z,21.36
2018-08-10T10:10:29.635Z,21.46
2018-08-10T10:11:29.607Z,21.45
2018-08-10T10:12:29.577Z,21.45
2018-08-10T10:13:29.557Z,21.57
2018-08-10T10:14:29.527Z,21.61
2018-08-10T10:15:29.504Z,21.76
2018-08-10T10:16:29.484Z,21.88
2018-08-10T10:17:29.545Z,22.02
2018-08-10T10:18:29.434Z,21.95
2018-08-10T10:19:29.410Z,21.98
2018-08-10T10:20:29.383Z,21.91
2018-08-10T10:21:29.362Z,22.00
2018-08-10T10:22:29.332Z,21.92
2018-08-10T10:23:29.312Z,21.83
2018-08-10T10:24:29.286Z,21.95
2018-08-10T10:25:29.255Z,22.00
2018-08-10T10:26:29.232Z,22.18
2018-08-10T10:27:29.211Z,22.29
2018-08-10T10:28:29.195Z,22.48
2018-08-10T10:29:29.167Z,22.45
2018-08-10T10:30:29.133Z,22.60
2018-08-10T10:31:29.113Z,22.73
2018-08-10T10:32:29.087Z,22.83
2018-08-10T10:33:29.060Z,22.90
2018-08-10T10:34:29.043Z,22.93
2018-08-10T10:35:29.014Z,22.87
2018-08-10T10:36:28.991Z,22.83
2018-08-10T10:37:28.963Z,22.84
2018-08-10T10:38:28.940Z,22.83
2018-08-10T10:39:28.914Z,22.78
2018-08-10T10:40:28.891Z,22.80
2018-08-10T10:41:28.892Z,22.78
2018-08-10T10:42:28.848Z,22.84
2018-08-10T10:43:28.822Z,22.83
2018-08-10T10:44:28.796Z,22.70
2018-08-10T10:45:28.771Z,22.75
2018-08-10T10:46:28.746Z,22.57
2018-08-10T10:47:28.808Z,22.66
2018-08-10T10:48:28.700Z,22.55
2018-08-10T10:49:28.675Z,22.62
2018-08-10T10:50:28.652Z,22.59
2018-08-10T10:51:28.627Z,22.62
2018-08-10T10:52:28.602Z,22.48
2018-08-10T10:53:28.576Z,22.41
2018-08-10T10:54:28.560Z,22.41
2018-08-10T10:55:28.571Z,22.45
2018-08-10T10:56:28.548Z,22.44
2018-08-10T10:57:28.483Z,22.59
2018-08-10T10:58:28.449Z,22.59
2018-08-10T10:59:28.432Z,22.57
2018-08-10T11:00:28.408Z,22.65
2018-08-10T11:01:28.387Z,22.55
2018-08-10T11:02:28.356Z,22.44
2018-08-10T11:03:28.337Z,22.33
2018-08-10T11:04:28.310Z,22.29
2018-08-10T11:05:28.282Z,22.28
2018-08-10T11:06:28.385Z,22.38
2018-08-10T11:07:28.243Z,22.54
2018-08-10T11:08:28.211Z,22.55
2018-08-10T11:09:28.186Z,22.66
2018-08-10T11:10:28.162Z,22.66
2018-08-10T11:11:28.139Z,22.43
2018-08-10T11:12:28.121Z,22.36
2018-08-10T11:13:28.085Z,22.32
2018-08-10T11:14:28.074Z,22.38
2018-08-10T11:15:28.041Z,22.41
2018-08-10T11:16:28.017Z,22.43
2018-08-10T11:17:27.988Z,22.41
2018-08-10T11:18:27.973Z,22.48
2018-08-10T11:19:27.943Z,22.50
2018-08-10T11:20:27.949Z,22.62
2018-08-10T11:21:27.900Z,22.70
2018-08-10T11:22:27.871Z,22.80
2018-08-10T11:23:27.847Z,22.81
2018-08-10T11:24:27.822Z,22.87
2018-08-10T11:25:27.896Z,22.91
2018-08-10T11:26:27.822Z,23.00
2018-08-10T11:27:27.748Z,23.02
2018-08-10T11:28:27.724Z,23.20
2018-08-10T11:29:27.703Z,23.23
2018-08-10T11:30:27.704Z,23.32
2018-08-10T11:31:27.657Z,23.23
2018-08-10T11:32:27.622Z,23.15
2018-08-10T11:33:27.600Z,23.13
2018-08-10T11:34:27.578Z,23.25
2018-08-10T11:35:27.550Z,23.09
2018-08-10T11:36:27.534Z,23.17
2018-08-10T11:37:27.505Z,23.17
2018-08-10T11:38:27.483Z,23.12
2018-08-10T11:39:27.456Z,23.18
2018-08-10T11:40:27.432Z,23.17
2018-08-10T11:41:27.428Z,23.27
2018-08-10T11:42:27.388Z,23.32
2018-08-10T11:43:27.364Z,23.37
2018-08-10T11:44:27.339Z,23.44
2018-08-10T11:45:27.312Z,23.43
2018-08-10T11:46:27.292Z,23.40
2018-08-10T11:47:27.258Z,23.28
2018-08-10T11:48:27.240Z,23.46
2018-08-10T11:49:27.214Z,23.41
2018-08-10T11:50:27.186Z,23.37
2018-08-10T11:51:27.169Z,23.36
2018-08-10T11:52:27.182Z,23.18
2018-08-10T11:53:27.121Z,23.05
2018-08-10T11:54:27.112Z,22.90
2018-08-10T11:55:27.063Z,22.85
2018-08-10T11:56:27.048Z,22.99
2018-08-10T11:57:27.087Z,22.99
2018-08-10T11:58:27.003Z,23.15
2018-08-10T11:59:26.984Z,23.24
2018-08-10T12:00:26.940Z,23.40
2018-08-10T12:01:26.927Z,23.48
2018-08-10T12:02:26.895Z,23.54
2018-08-10T12:03:26.873Z,23.62
2018-08-10T12:04:26.852Z,23.59
2018-08-10T12:05:26.843Z,23.63
2018-08-10T12:06:26.803Z,23.46
2018-08-10T12:07:26.781Z,23.50
2018-08-10T12:08:26.754Z,23.34
2018-08-10T12:09:26.731Z,23.41
2018-08-10T12:10:26.704Z,23.34
2018-08-10T12:11:26.688Z,23.41
2018-08-10T12:12:26.683Z,23.44
2018-08-10T12:13:26.635Z,23.47
2018-08-10T12:14:26.606Z,23.46
2018-08-10T12:15:26.587Z,23.39
2018-08-10T12:16:26.569Z,23.39
2018-08-10T12:17:26.533Z,23.18
2018-08-10T12:18:26.515Z,23.09
2018-08-10T12:19:26.489Z,23.05
2018-08-10T12:20:26.461Z,23.05
2018-08-10T12:21:26.439Z,23.10
2018-08-10T12:22:26.415Z,23.17
2018-08-10T12:23:26.395Z,23.00
2018-08-10T12:24:26.370Z,22.84
2018-08-10T12:25:26.338Z,22.83
2018-08-10T12:26:26.319Z,22.84
2018-08-10T12:27:26.298Z,22.76
2018-08-10T12:28:26.271Z,22.87
2018-08-10T12:29:26.245Z,23.03
2018-08-10T12:30:26.229Z,23.17
2018-08-10T12:31:26.195Z,23.18
2018-08-10T12:32:26.173Z,23.25
2018-08-10T12:33:26.160Z,23.40
2018-08-10T12:34:26.120Z,23.43
2018-08-10T12:35:26.100Z,23.47
2018-08-10T12:36:26.081Z,23.59
2018-08-10T12:37:26.056Z,23.77
2018-08-10T12:38:26.026Z,23.78
2018-08-10T12:39:26.013Z,23.73
2018-08-10T12:40:25.982Z,23.76
2018-08-10T12:41:25.949Z,23.69
2018-08-10T12:42:25.935Z,23.68
2018-08-10T12:43:25.905Z,23.68
2018-08-10T12:44:25.883Z,23.65
2018-08-10T12:45:25.861Z,23.62
2018-08-10T12:46:25.835Z,23.58
2018-08-10T12:47:25.814Z,23.59
2018-08-10T12:48:25.807Z,23.73
2018-08-10T12:49:25.760Z,23.80
2018-08-10T12:50:25.895Z,23.84
2018-08-10T12:51:25.710Z,23.95
2018-08-10T12:52:25.694Z,24.16